sensor_id;sensor_type;location;lat;lon;timestamp;pressure;altitude;pressure_sealevel;temperature;humidity
15750;BME280;7976;52.526;13.326;2023-02-19T00:01:08;101000.34;;;6.85;100.00
15750;BME280;7976;52.526;13.326;2023-02-19T00:03:36;101004.69;;;6.83;100.00
15750;BME280;7976;52.526;13.326;2023-02-19T00:06:07;101005.59;;;6.82;100.00
15750;BME280;7976;52.526;13.326;2023-02-19T00:08:37;101001.28;;;6.81;100.00
15750;BME280;7976;52.526;13.326;2023-02-19T00:11:06;100999.56;;;6.80;100.00
15750;BME280;7976;52.526;13.326;2023-02-19T00:13:35;101004.75;;;6.80;100.00
15750;BME280;7976;52.526;13.326;2023-02-19T00:16:05;100996.13;;;6.80;100.00
15750;BME280;7976;52.526;13.326;2023-02-19T00:18:32;100989.19;;;6.79;100.00
15750;BME280;7976;52.526;13.326;2023-02-19T00:20:59;100991.81;;;6.77;100.00
15750;BME280;7976;52.526;13.326;2023-02-19T00:23:26;100998.75;;;6.77;100.00
15750;BME280;7976;52.526;13.326;2023-02-19T00:25:54;101001.31;;;6.78;100.00
15750;BME280;7976;52.526;13.326;2023-02-19T00:28:22;100996.94;;;6.82;100.00
15750;BME280;7976;52.526;13.326;2023-02-19T00:30:48;100986.50;;;6.85;100.00
15750;BME280;7976;52.526;13.326;2023-02-19T00:33:15;100982.06;;;6.88;100.00
15750;BME280;7976;52.526;13.326;2023-02-19T00:35:42;100978.63;;;6.88;100.00
15750;BME280;7976;52.526;13.326;2023-02-19T00:38:09;100976.88;;;6.88;100.00
15750;BME280;7976;52.526;13.326;2023-02-19T00:40:37;100969.06;;;6.90;100.00
15750;BME280;7976;52.526;13.326;2023-02-19T00:43:06;100969.06;;;6.88;100.00
15750;BME280;7976;52.526;13.326;2023-02-19T00:45:32;100974.28;;;6.88;100.00
15750;BME280;7976;52.526;13.326;2023-02-19T00:48:00;100973.47;;;6.86;100.00
15750;BME280;7976;52.526;13.326;2023-02-19T00:50:27;100969.94;;;6.89;100.00
15750;BME280;7976;52.526;13.326;2023-02-19T00:52:54;100966.47;;;6.88;100.00
15750;BME280;7976;52.526;13.326;2023-02-19T00:55:20;100969.13;;;6.85;100.00
15750;BME280;7976;52.526;13.326;2023-02-19T00:57:47;100964.88;;;6.81;100.00
15750;BME280;7976;52.526;13.326;2023-02-19T01:00:15;100966.63;;;6.81;100.00
15750;BME280;7976;52.526;13.326;2023-02-19T01:02:42;100966.59;;;6.82;100.00
15750;BME280;7976;52.526;13.326;2023-02-19T01:05:09;100959.63;;;6.84;100.00
15750;BME280;7976;52.526;13.326;2023-02-19T01:07:36;100949.19;;;6.86;100.00
15750;BME280;7976;52.526;13.326;2023-02-19T01:10:04;100950.88;;;6.88;100.00
15750;BME280;7976;52.526;13.326;2023-02-19T01:12:31;100955.16;;;6.91;100.00
15750;BME280;7976;52.526;13.326;2023-02-19T01:14:58;100943.03;;;6.91;100.00
15750;BME280;7976;52.526;13.326;2023-02-19T01:17:26;100944.63;;;6.97;100.00
15750;BME280;7976;52.526;13.326;2023-02-19T01:19:53;100945.44;;;7.00;100.00
15750;BME280;7976;52.526;13.326;2023-02-19T01:22:20;100941.16;;;6.98;100.00
15750;BME280;7976;52.526;13.326;2023-02-19T01:24:46;100928.28;;;6.90;100.00
15750;BME280;7976;52.526;13.326;2023-02-19T01:27:14;100924.03;;;6.88;100.00
15750;BME280;7976;52.526;13.326;2023-02-19T01:29:41;100924.81;;;6.91;100.00
15750;BME280;7976;52.526;13.326;2023-02-19T01:32:08;100902.22;;;6.93;100.00
15750;BME280;7976;52.526;13.326;2023-02-19T01:34:36;100903.19;;;6.89;100.00
15750;BME280;7976;52.526;13.326;2023-02-19T01:37:03;100912.88;;;6.81;100.00
15750;BME280;7976;52.526;13.326;2023-02-19T01:39:30;100919.84;;;6.79;100.00
15750;BME280;7976;52.526;13.326;2023-02-19T01:41:58;100917.31;;;6.76;100.00
15750;BME280;7976;52.526;13.326;2023-02-19T01:45:21;100906.94;;;6.73;100.00
15750;BME280;7976;52.526;13.326;2023-02-19T01:48:00;100913.91;;;6.73;100.00
15750;BME280;7976;52.526;13.326;2023-02-19T01:50:36;100902.63;;;6.72;100.00
15750;BME280;7976;52.526;13.326;2023-02-19T01:53:07;100902.63;;;6.72;100.00
15750;BME280;7976;52.526;13.326;2023-02-19T01:55:38;100900.19;;;6.65;100.00
15750;BME280;7976;52.526;13.326;2023-02-19T01:58:07;100893.28;;;6.64;100.00
15750;BME280;7976;52.526;13.326;2023-02-19T02:00:37;100890.66;;;6.64;100.00
15750;BME280;7976;52.526;13.326;2023-02-19T02:03:04;100886.38;;;6.63;100.00
15750;BME280;7976;52.526;13.326;2023-02-19T02:05:49;100878.69;;;6.55;100.00
15750;BME280;7976;52.526;13.326;2023-02-19T02:08:19;100883.19;;;6.47;100.00
15750;BME280;7976;52.526;13.326;2023-02-19T02:11:04;100865.06;;;6.44;100.00
15750;BME280;7976;52.526;13.326;2023-02-19T02:13:33;100872.81;;;6.46;100.00
15750;BME280;7976;52.526;13.326;2023-02-19T02:16:16;100877.97;;;6.49;100.00
15750;BME280;7976;52.526;13.326;2023-02-19T02:18:58;100886.59;;;6.51;100.00
15750;BME280;7976;52.526;13.326;2023-02-19T02:21:54;100881.38;;;6.52;100.00
15750;BME280;7976;52.526;13.326;2023-02-19T02:24:51;100888.28;;;6.52;100.00
15750;BME280;7976;52.526;13.326;2023-02-19T02:27:50;100884.03;;;6.49;100.00
15750;BME280;7976;52.526;13.326;2023-02-19T02:30:41;100889.22;;;6.49;100.00
15750;BME280;7976;52.526;13.326;2023-02-19T02:33:25;100877.94;;;6.50;100.00
15750;BME280;7976;52.526;13.326;2023-02-19T02:35:59;100878.81;;;6.49;100.00
15750;BME280;7976;52.526;13.326;2023-02-19T02:38:34;100878.81;;;6.49;100.00
15750;BME280;7976;52.526;13.326;2023-02-19T02:41:04;100875.38;;;6.47;100.00
15750;BME280;7976;52.526;13.326;2023-02-19T02:43:32;100874.50;;;6.50;100.00
15750;BME280;7976;52.526;13.326;2023-02-19T02:46:00;100871.00;;;6.51;100.00
15750;BME280;7976;52.526;13.326;2023-02-19T02:48:35;100872.72;;;6.50;100.00
15750;BME280;7976;52.526;13.326;2023-02-19T02:51:13;100871.94;;;6.47;99.85
15750;BME280;7976;52.526;13.326;2023-02-19T02:53:52;100879.88;;;6.39;99.75
15750;BME280;7976;52.526;13.326;2023-02-19T02:56:39;100875.72;;;6.29;99.37
15750;BME280;7976;52.526;13.326;2023-02-19T02:59:10;100882.75;;;6.24;99.37
15750;BME280;7976;52.526;13.326;2023-02-19T03:01:45;100878.47;;;6.20;99.35
15750;BME280;7976;52.526;13.326;2023-02-19T03:04:43;100895.88;;;6.15;99.14
15750;BME280;7976;52.526;13.326;2023-02-19T03:07:38;100886.44;;;6.11;99.06
15750;BME280;7976;52.526;13.326;2023-02-19T03:10:10;100883.88;;;6.08;98.87
15750;BME280;7976;52.526;13.326;2023-02-19T03:12:39;100891.66;;;6.08;98.78
15750;BME280;7976;52.526;13.326;2023-02-19T03:15:28;100895.13;;;6.08;98.76
15750;BME280;7976;52.526;13.326;2023-02-19T03:18:20;100899.53;;;6.03;98.74
15750;BME280;7976;52.526;13.326;2023-02-19T03:21:07;100900.47;;;6.01;98.64
15750;BME280;7976;52.526;13.326;2023-02-19T03:23:37;100897.91;;;5.96;98.67
15750;BME280;7976;52.526;13.326;2023-02-19T03:26:25;100918.72;;;5.95;98.72
15750;BME280;7976;52.526;13.326;2023-02-19T03:28:53;100918.78;;;5.92;98.58
15750;BME280;7976;52.526;13.326;2023-02-19T03:31:43;100905.06;;;5.84;98.73
15750;BME280;7976;52.526;13.326;2023-02-19T03:34:16;100906.84;;;5.77;98.53
15750;BME280;7976;52.526;13.326;2023-02-19T03:36:59;100906.13;;;5.68;98.93
15750;BME280;7976;52.526;13.326;2023-02-19T03:39:27;100911.47;;;5.59;98.50
15750;BME280;7976;52.526;13.326;2023-02-19T03:42:02;100915.00;;;5.52;98.42
15750;BME280;7976;52.526;13.326;2023-02-19T03:44:41;100912.50;;;5.46;98.72
15750;BME280;7976;52.526;13.326;2023-02-19T03:47:16;100919.50;;;5.41;98.80
15750;BME280;7976;52.526;13.326;2023-02-19T03:49:54;100920.50;;;5.31;98.62
15750;BME280;7976;52.526;13.326;2023-02-19T03:52:33;100923.16;;;5.25;98.66
15750;BME280;7976;52.526;13.326;2023-02-19T03:55:08;100919.84;;;5.15;98.97
15750;BME280;7976;52.526;13.326;2023-02-19T03:57:48;100916.50;;;5.04;98.39
15750;BME280;7976;52.526;13.326;2023-02-19T04:00:22;100931.31;;;4.94;98.15
15750;BME280;7976;52.526;13.326;2023-02-19T04:02:58;100927.91;;;4.89;98.43
15750;BME280;7976;52.526;13.326;2023-02-19T04:05:36;100933.09;;;4.89;98.30
15750;BME280;7976;52.526;13.326;2023-02-19T04:08:10;100941.75;;;4.88;98.39
15750;BME280;7976;52.526;13.326;2023-02-19T04:10:45;100940.06;;;4.84;98.22
15750;BME280;7976;52.526;13.326;2023-02-19T04:13:20;100940.94;;;4.83;98.44
15750;BME280;7976;52.526;13.326;2023-02-19T04:15:52;100947.84;;;4.83;98.42
15750;BME280;7976;52.526;13.326;2023-02-19T04:18:25;100941.81;;;4.82;98.54
15750;BME280;7976;52.526;13.326;2023-02-19T04:20:56;100944.38;;;4.82;98.73
15750;BME280;7976;52.526;13.326;2023-02-19T04:23:32;100941.84;;;4.79;98.55
15750;BME280;7976;52.526;13.326;2023-02-19T04:26:02;100953.06;;;4.81;98.77
15750;BME280;7976;52.526;13.326;2023-02-19T04:28:31;100952.16;;;4.84;98.99
15750;BME280;7976;52.526;13.326;2023-02-19T04:30:58;100959.94;;;4.85;99.01
15750;BME280;7976;52.526;13.326;2023-02-19T04:33:25;100957.31;;;4.87;98.76
15750;BME280;7976;52.526;13.326;2023-02-19T04:35:52;100963.34;;;4.87;98.93
15750;BME280;7976;52.526;13.326;2023-02-19T04:38:20;100960.78;;;4.84;98.93
15750;BME280;7976;52.526;13.326;2023-02-19T04:40:50;100969.50;;;4.77;98.89
15750;BME280;7976;52.526;13.326;2023-02-19T04:43:17;100965.28;;;4.66;98.72
15750;BME280;7976;52.526;13.326;2023-02-19T04:45:44;100974.03;;;4.56;98.76
15750;BME280;7976;52.526;13.326;2023-02-19T04:48:11;100965.41;;;4.55;98.87
15750;BME280;7976;52.526;13.326;2023-02-19T04:50:39;100963.66;;;4.57;98.90
15750;BME280;7976;52.526;13.326;2023-02-19T04:53:06;100967.13;;;4.56;98.97
15750;BME280;7976;52.526;13.326;2023-02-19T04:55:37;100986.13;;;4.54;99.12
15750;BME280;7976;52.526;13.326;2023-02-19T04:58:05;100968.91;;;4.51;98.99
15750;BME280;7976;52.526;13.326;2023-02-19T05:00:32;100973.22;;;4.49;99.15
15750;BME280;7976;52.526;13.326;2023-02-19T05:03:02;100985.31;;;4.49;99.24
15750;BME280;7976;52.526;13.326;2023-02-19T05:05:29;100978.41;;;4.49;99.10
15750;BME280;7976;52.526;13.326;2023-02-19T05:07:56;100984.50;;;4.47;99.23
15750;BME280;7976;52.526;13.326;2023-02-19T05:10:23;100981.97;;;4.36;98.59
15750;BME280;7976;52.526;13.326;2023-02-19T05:12:53;100991.47;;;4.36;98.92
15750;BME280;7976;52.526;13.326;2023-02-19T05:15:21;100984.53;;;4.39;99.43
15750;BME280;7976;52.526;13.326;2023-02-19T05:17:47;100982.75;;;4.50;99.72
15750;BME280;7976;52.526;13.326;2023-02-19T05:20:15;100980.19;;;4.44;99.12
15750;BME280;7976;52.526;13.326;2023-02-19T05:22:42;100975.91;;;4.42;99.06
15750;BME280;7976;52.526;13.326;2023-02-19T05:25:11;100981.94;;;4.39;99.06
15750;BME280;7976;52.526;13.326;2023-02-19T05:27:38;100981.91;;;4.42;99.50
15750;BME280;7976;52.526;13.326;2023-02-19T05:30:09;100983.69;;;4.37;99.28
15750;BME280;7976;52.526;13.326;2023-02-19T05:32:36;100991.47;;;4.40;99.26
15750;BME280;7976;52.526;13.326;2023-02-19T05:35:04;100981.09;;;4.40;99.41
15750;BME280;7976;52.526;13.326;2023-02-19T05:37:31;100981.06;;;4.45;99.57
15750;BME280;7976;52.526;13.326;2023-02-19T05:39:58;100986.19;;;4.49;99.39
15750;BME280;7976;52.526;13.326;2023-02-19T05:42:24;100985.34;;;4.50;99.36
15750;BME280;7976;52.526;13.326;2023-02-19T05:44:52;100987.91;;;4.50;98.92
15750;BME280;7976;52.526;13.326;2023-02-19T05:47:20;100993.09;;;4.52;99.19
15750;BME280;7976;52.526;13.326;2023-02-19T05:49:47;100995.63;;;4.56;99.26
15750;BME280;7976;52.526;13.326;2023-02-19T05:52:13;100996.50;;;4.54;99.19
15750;BME280;7976;52.526;13.326;2023-02-19T05:54:40;101001.69;;;4.52;99.13
15750;BME280;7976;52.526;13.326;2023-02-19T05:57:07;101007.75;;;4.51;98.95
15750;BME280;7976;52.526;13.326;2023-02-19T05:59:34;100999.13;;;4.49;99.15
15750;BME280;7976;52.526;13.326;2023-02-19T06:02:01;100993.94;;;4.49;99.21
15750;BME280;7976;52.526;13.326;2023-02-19T06:04:29;100999.13;;;4.49;99.17
15750;BME280;7976;52.526;13.326;2023-02-19T06:06:55;100993.09;;;4.47;99.00
15750;BME280;7976;52.526;13.326;2023-02-19T06:09:22;100999.16;;;4.46;99.55
15750;BME280;7976;52.526;13.326;2023-02-19T06:11:49;101012.13;;;4.46;99.20
15750;BME280;7976;52.526;13.326;2023-02-19T06:14:16;101003.47;;;4.47;99.47
15750;BME280;7976;52.526;13.326;2023-02-19T06:16:43;100992.25;;;4.48;99.46
15750;BME280;7976;52.526;13.326;2023-02-19T06:19:09;100989.63;;;4.51;99.76
15750;BME280;7976;52.526;13.326;2023-02-19T06:21:37;100991.34;;;4.52;99.80
15750;BME280;7976;52.526;13.326;2023-02-19T06:24:06;100998.28;;;4.52;99.69
15750;BME280;7976;52.526;13.326;2023-02-19T06:26:33;101000.88;;;4.50;99.89
15750;BME280;7976;52.526;13.326;2023-02-19T06:28:59;101005.19;;;4.50;99.81
15750;BME280;7976;52.526;13.326;2023-02-19T06:31:26;101012.09;;;4.48;99.80
15750;BME280;7976;52.526;13.326;2023-02-19T06:33:53;101023.38;;;4.45;99.64
15750;BME280;7976;52.526;13.326;2023-02-19T06:36:21;101028.56;;;4.39;99.74
15750;BME280;7976;52.526;13.326;2023-02-19T06:38:50;101040.69;;;4.34;99.89
15750;BME280;7976;52.526;13.326;2023-02-19T06:41:18;101040.72;;;4.31;99.86
15750;BME280;7976;52.526;13.326;2023-02-19T06:43:45;101051.13;;;4.28;99.82
15750;BME280;7976;52.526;13.326;2023-02-19T06:46:12;101058.03;;;4.26;99.89
15750;BME280;7976;52.526;13.326;2023-02-19T06:48:41;101062.31;;;4.30;100.00
15750;BME280;7976;52.526;13.326;2023-02-19T06:51:11;101073.50;;;4.35;100.00
15750;BME280;7976;52.526;13.326;2023-02-19T06:53:38;101066.56;;;4.37;100.00
15750;BME280;7976;52.526;13.326;2023-02-19T06:56:22;101068.28;;;4.41;99.98
15750;BME280;7976;52.526;13.326;2023-02-19T06:58:49;101068.22;;;4.47;100.00
15750;BME280;7976;52.526;13.326;2023-02-19T07:01:16;101080.28;;;4.51;100.00
15750;BME280;7976;52.526;13.326;2023-02-19T07:03:43;101076.00;;;4.50;100.00
15750;BME280;7976;52.526;13.326;2023-02-19T07:06:10;101088.06;;;4.51;100.00
15750;BME280;7976;52.526;13.326;2023-02-19T07:08:36;101085.47;;;4.53;99.91
15750;BME280;7976;52.526;13.326;2023-02-19T07:11:04;101088.06;;;4.53;99.96
15750;BME280;7976;52.526;13.326;2023-02-19T07:13:32;101088.91;;;4.56;99.70
15750;BME280;7976;52.526;13.326;2023-02-19T07:16:02;101091.47;;;4.58;100.00
15750;BME280;7976;52.526;13.326;2023-02-19T07:18:30;101100.13;;;4.58;99.90
15750;BME280;7976;52.526;13.326;2023-02-19T07:21:02;101105.28;;;4.58;99.59
15750;BME280;7976;52.526;13.326;2023-02-19T07:23:29;101098.34;;;4.63;99.67
15750;BME280;7976;52.526;13.326;2023-02-19T07:25:56;101110.44;;;4.64;99.73
15750;BME280;7976;52.526;13.326;2023-02-19T07:28:23;101111.25;;;4.69;99.81
15750;BME280;7976;52.526;13.326;2023-02-19T07:30:52;101112.03;;;4.77;99.73
15750;BME280;7976;52.526;13.326;2023-02-19T07:33:19;101113.75;;;4.81;99.59
15750;BME280;7976;52.526;13.326;2023-02-19T07:35:47;101123.25;;;4.82;99.69
15750;BME280;7976;52.526;13.326;2023-02-19T07:38:15;101121.50;;;4.83;99.39
15750;BME280;7976;52.526;13.326;2023-02-19T07:40:50;101132.78;;;4.80;99.23
15750;BME280;7976;52.526;13.326;2023-02-19T07:43:17;101127.59;;;4.77;99.02
15750;BME280;7976;52.526;13.326;2023-02-19T07:45:44;101140.63;;;4.70;98.66
15750;BME280;7976;52.526;13.326;2023-02-19T07:48:13;101136.31;;;4.66;98.56
15750;BME280;7976;52.526;13.326;2023-02-19T07:50:40;101144.94;;;4.69;98.82
15750;BME280;7976;52.526;13.326;2023-02-19T07:53:07;101151.84;;;4.72;98.80
15750;BME280;7976;52.526;13.326;2023-02-19T07:55:34;101158.75;;;4.73;98.33
15750;BME280;7976;52.526;13.326;2023-02-19T07:58:04;101161.31;;;4.74;98.42
15750;BME280;7976;52.526;13.326;2023-02-19T08:00:30;101167.38;;;4.73;97.99
15750;BME280;7976;52.526;13.326;2023-02-19T08:02:58;101175.16;;;4.73;98.02
15750;BME280;7976;52.526;13.326;2023-02-19T08:05:31;101182.06;;;4.71;97.88
15750;BME280;7976;52.526;13.326;2023-02-19T08:07:59;101184.66;;;4.71;97.78
15750;BME280;7976;52.526;13.326;2023-02-19T08:10:26;101194.16;;;4.75;97.71
15750;BME280;7976;52.526;13.326;2023-02-19T08:13:15;101190.69;;;4.76;97.49
15750;BME280;7976;52.526;13.326;2023-02-19T08:15:48;101194.16;;;4.77;97.43
15750;BME280;7976;52.526;13.326;2023-02-19T08:18:17;101196.75;;;4.77;97.06
15750;BME280;7976;52.526;13.326;2023-02-19T08:20:46;101213.16;;;4.74;96.91
15750;BME280;7976;52.526;13.326;2023-02-19T08:23:14;101213.13;;;4.77;96.92
15750;BME280;7976;52.526;13.326;2023-02-19T08:25:42;101222.66;;;4.75;97.10
15750;BME280;7976;52.526;13.326;2023-02-19T08:28:10;101232.19;;;4.73;96.70
15750;BME280;7976;52.526;13.326;2023-02-19T08:30:38;101249.44;;;4.74;96.26
15750;BME280;7976;52.526;13.326;2023-02-19T08:33:07;101235.63;;;4.72;96.22
15750;BME280;7976;52.526;13.326;2023-02-19T08:35:34;101240.78;;;4.78;96.08
15750;BME280;7976;52.526;13.326;2023-02-19T08:38:04;101247.66;;;4.84;95.98
15750;BME280;7976;52.526;13.326;2023-02-19T08:43:13;101255.38;;;4.93;95.94
15750;BME280;7976;52.526;13.326;2023-02-19T08:45:43;101265.72;;;5.02;95.99
15750;BME280;7976;52.526;13.326;2023-02-19T08:48:10;101263.06;;;5.08;95.86
15750;BME280;7976;52.526;13.326;2023-02-19T08:50:38;101263.03;;;5.12;95.52
15750;BME280;7976;52.526;13.326;2023-02-19T08:53:06;101268.16;;;5.22;95.38
15750;BME280;7976;52.526;13.326;2023-02-19T08:55:35;101282.81;;;5.27;95.27
15750;BME280;7976;52.526;13.326;2023-02-19T08:58:03;101282.75;;;5.35;94.96
15750;BME280;7976;52.526;13.326;2023-02-19T09:00:30;101283.56;;;5.43;95.01
15750;BME280;7976;52.526;13.326;2023-02-19T09:02:57;101287.00;;;5.45;94.30
15750;BME280;7976;52.526;13.326;2023-02-19T09:05:24;101292.16;;;5.51;94.16
15750;BME280;7976;52.526;13.326;2023-02-19T09:07:50;101295.59;;;5.53;93.93
15750;BME280;7976;52.526;13.326;2023-02-19T09:10:19;101292.09;;;5.57;93.62
15750;BME280;7976;52.526;13.326;2023-02-19T09:12:45;101298.97;;;5.64;93.19
15750;BME280;7976;52.526;13.326;2023-02-19T09:15:12;101294.59;;;5.72;92.93
15750;BME280;7976;52.526;13.326;2023-02-19T09:17:39;101304.91;;;5.79;92.69
15750;BME280;7976;52.526;13.326;2023-02-19T09:20:07;101299.69;;;5.84;92.50
15750;BME280;7976;52.526;13.326;2023-02-19T09:22:35;101313.50;;;5.89;92.41
15750;BME280;7976;52.526;13.326;2023-02-19T09:25:02;101316.03;;;5.96;92.23
15750;BME280;7976;52.526;13.326;2023-02-19T09:27:30;101313.41;;;5.99;91.87
15750;BME280;7976;52.526;13.326;2023-02-19T09:29:57;101321.13;;;6.07;91.67
15750;BME280;7976;52.526;13.326;2023-02-19T09:32:24;101318.47;;;6.14;91.28
15750;BME280;7976;52.526;13.326;2023-02-19T09:34:51;101315.78;;;6.22;91.05
15750;BME280;7976;52.526;13.326;2023-02-19T09:37:18;101333.94;;;6.25;90.42
15750;BME280;7976;52.526;13.326;2023-02-19T09:39:44;101328.72;;;6.25;90.20
15750;BME280;7976;52.526;13.326;2023-02-19T09:42:17;101333.94;;;6.25;89.82
15750;BME280;7976;52.526;13.326;2023-02-19T09:44:51;101333.06;;;6.26;89.64
15750;BME280;7976;52.526;13.326;2023-02-19T09:47:21;101331.31;;;6.25;88.92
15750;BME280;7976;52.526;13.326;2023-02-19T09:49:51;101331.28;;;6.28;88.67
15750;BME280;7976;52.526;13.326;2023-02-19T09:52:31;101338.25;;;6.26;88.28
15750;BME280;7976;52.526;13.326;2023-02-19T09:55:03;101341.69;;;6.28;88.39
15750;BME280;7976;52.526;13.326;2023-02-19T09:57:37;101352.81;;;6.42;88.31
15750;BME280;7976;52.526;13.326;2023-02-19T10:00:20;101358.75;;;6.55;87.69
15750;BME280;7976;52.526;13.326;2023-02-19T10:02:51;101355.34;;;6.50;87.20
15750;BME280;7976;52.526;13.326;2023-02-19T10:05:21;101357.13;;;6.46;86.65
15750;BME280;7976;52.526;13.326;2023-02-19T10:07:52;101367.47;;;6.49;86.65
15750;BME280;7976;52.526;13.326;2023-02-19T10:10:28;101369.09;;;6.59;86.27
15750;BME280;7976;52.526;13.326;2023-02-19T10:13:12;101368.16;;;6.66;85.54
15750;BME280;7976;52.526;13.326;2023-02-19T10:15:47;101370.81;;;6.60;84.98
15750;BME280;7976;52.526;13.326;2023-02-19T10:18:18;101378.56;;;6.63;84.78
15750;BME280;7976;52.526;13.326;2023-02-19T10:20:47;101390.72;;;6.64;84.33
15750;BME280;7976;52.526;13.326;2023-02-19T10:23:15;101391.63;;;6.59;83.86
15750;BME280;7976;52.526;13.326;2023-02-19T10:25:47;101395.13;;;6.53;83.50
15750;BME280;7976;52.526;13.326;2023-02-19T10:28:17;101399.59;;;6.42;82.95
15750;BME280;7976;52.526;13.326;2023-02-19T10:30:51;101406.44;;;6.51;82.86
15750;BME280;7976;52.526;13.326;2023-02-19T10:33:19;101406.31;;;6.64;82.47
15750;BME280;7976;52.526;13.326;2023-02-19T10:35:56;101410.56;;;6.71;82.23
15750;BME280;7976;52.526;13.326;2023-02-19T10:38:27;101407.03;;;6.77;81.87
15750;BME280;7976;52.526;13.326;2023-02-19T10:41:03;101409.50;;;6.87;81.58
15750;BME280;7976;52.526;13.326;2023-02-19T10:43:34;101422.25;;;7.11;81.22
15750;BME280;7976;52.526;13.326;2023-02-19T10:46:14;101430.69;;;7.30;80.58
15750;BME280;7976;52.526;13.326;2023-02-19T10:48:49;101424.44;;;7.43;80.50
15750;BME280;7976;52.526;13.326;2023-02-19T10:51:18;101420.88;;;7.50;80.12
15750;BME280;7976;52.526;13.326;2023-02-19T10:53:50;101430.31;;;7.55;79.63
15750;BME280;7976;52.526;13.326;2023-02-19T10:56:28;101435.47;;;7.58;78.55
15750;BME280;7976;52.526;13.326;2023-02-19T10:59:22;101441.50;;;7.65;77.55
15750;BME280;7976;52.526;13.326;2023-02-19T11:01:58;101440.53;;;7.71;77.37
15750;BME280;7976;52.526;13.326;2023-02-19T11:04:28;101446.78;;;7.57;76.89
15750;BME280;7976;52.526;13.326;2023-02-19T11:07:06;101458.13;;;7.53;76.90
15750;BME280;7976;52.526;13.326;2023-02-19T11:09:38;101457.09;;;7.67;77.00
15750;BME280;7976;52.526;13.326;2023-02-19T11:12:07;101467.41;;;7.74;75.95
15750;BME280;7976;52.526;13.326;2023-02-19T11:14:35;101475.34;;;7.67;75.37
15750;BME280;7976;52.526;13.326;2023-02-19T11:17:04;101474.50;;;7.63;74.81
15750;BME280;7976;52.526;13.326;2023-02-19T11:19:37;101476.22;;;7.64;74.58
15750;BME280;7976;52.526;13.326;2023-02-19T11:22:19;101484.84;;;7.68;74.03
15750;BME280;7976;52.526;13.326;2023-02-19T11:24:54;101490.13;;;7.63;73.48
15750;BME280;7976;52.526;13.326;2023-02-19T11:27:24;101489.25;;;7.62;72.72
15750;BME280;7976;52.526;13.326;2023-02-19T11:29:51;101483.19;;;7.62;72.24
15750;BME280;7976;52.526;13.326;2023-02-19T11:32:28;101482.16;;;7.77;72.28
15750;BME280;7976;52.526;13.326;2023-02-19T11:35:19;101475.78;;;7.94;71.60
15750;BME280;7976;52.526;13.326;2023-02-19T11:37:56;101493.84;;;8.08;71.37
15750;BME280;7976;52.526;13.326;2023-02-19T11:40:38;101505.91;;;8.15;70.63
15750;BME280;7976;52.526;13.326;2023-02-19T11:43:22;101500.59;;;8.24;70.43
15750;BME280;7976;52.526;13.326;2023-02-19T11:46:01;101503.88;;;8.35;70.78
15750;BME280;7976;52.526;13.326;2023-02-19T11:48:50;101495.16;;;8.36;69.54
15750;BME280;7976;52.526;13.326;2023-02-19T11:54:38;101483.84;;;8.38;69.01
15750;BME280;7976;52.526;13.326;2023-02-19T11:57:27;101489.88;;;8.42;69.09
15750;BME280;7976;52.526;13.326;2023-02-19T12:00:14;101476.81;;;8.43;68.65
15750;BME280;7976;52.526;13.326;2023-02-19T12:03:03;101487.25;;;8.42;67.77
15750;BME280;7976;52.526;13.326;2023-02-19T12:05:48;101493.56;;;8.29;67.50
15750;BME280;7976;52.526;13.326;2023-02-19T12:08:45;101499.72;;;8.23;67.50
15750;BME280;7976;52.526;13.326;2023-02-19T12:11:37;101513.63;;;8.21;67.72
15750;BME280;7976;52.526;13.326;2023-02-19T12:14:41;101520.41;;;8.32;68.06
15750;BME280;7976;52.526;13.326;2023-02-19T12:17:24;101512.72;;;8.26;67.49
15750;BME280;7976;52.526;13.326;2023-02-19T12:20:09;101505.84;;;8.18;67.06
15750;BME280;7976;52.526;13.326;2023-02-19T12:22:52;101517.22;;;8.14;66.92
15750;BME280;7976;52.526;13.326;2023-02-19T12:25:40;101512.75;;;8.22;67.12
15750;BME280;7976;52.526;13.326;2023-02-19T12:28:34;101518.50;;;8.45;66.68
15750;BME280;7976;52.526;13.326;2023-02-19T12:34:40;101528.25;;;9.31;65.57
15750;BME280;7976;52.526;13.326;2023-02-19T12:37:26;101531.56;;;9.41;64.68
15750;BME280;7976;52.526;13.326;2023-02-19T12:40:16;101533.47;;;9.31;64.34
15750;BME280;7976;52.526;13.326;2023-02-19T12:43:01;101542.34;;;9.24;64.86
15750;BME280;7976;52.526;13.326;2023-02-19T12:45:37;101534.78;;;9.09;64.52
15750;BME280;7976;52.526;13.326;2023-02-19T12:48:16;101537.63;;;8.97;64.33
15750;BME280;7976;52.526;13.326;2023-02-19T12:50:47;101538.72;;;8.82;64.08
15750;BME280;7976;52.526;13.326;2023-02-19T12:53:34;101538.06;;;8.70;64.09
15750;BME280;7976;52.526;13.326;2023-02-19T12:56:09;101553.81;;;8.65;63.93
15750;BME280;7976;52.526;13.326;2023-02-19T12:58:43;101537.38;;;8.60;63.30
15750;BME280;7976;52.526;13.326;2023-02-19T13:01:17;101529.41;;;8.68;63.59
15750;BME280;7976;52.526;13.326;2023-02-19T13:03:50;101553.78;;;8.67;63.94
15750;BME280;7976;52.526;13.326;2023-02-19T13:06:32;101560.09;;;8.54;63.50
15750;BME280;7976;52.526;13.326;2023-02-19T13:09:11;101553.31;;;8.44;63.11
15750;BME280;7976;52.526;13.326;2023-02-19T13:11:45;101550.63;;;8.47;63.01
15750;BME280;7976;52.526;13.326;2023-02-19T13:14:20;101569.63;;;8.55;62.82
15750;BME280;7976;52.526;13.326;2023-02-19T13:16:59;101559.19;;;8.55;62.32
15750;BME280;7976;52.526;13.326;2023-02-19T13:19:27;101564.44;;;8.53;62.03
15750;BME280;7976;52.526;13.326;2023-02-19T13:22:02;101560.84;;;8.60;62.11
15750;BME280;7976;52.526;13.326;2023-02-19T13:24:50;101565.94;;;8.68;61.90
15750;BME280;7976;52.526;13.326;2023-02-19T13:27:54;101560.66;;;8.71;61.82
15750;BME280;7976;52.526;13.326;2023-02-19T13:30:42;101565.03;;;8.70;61.75
15750;BME280;7976;52.526;13.326;2023-02-19T13:33:42;101575.56;;;8.64;61.78
15750;BME280;7976;52.526;13.326;2023-02-19T13:36:23;101574.97;;;8.49;61.61